Time;durP1;ratioP1;P1;durP2;ratioP2;P2;SDS_P1;SDS_P2;PMS_P1;PMS_P2;Temp;Humidity;BMP_temperature;BMP_pressure;BME280_temperature;BME280_humidity;BME280_pressure;Samples;Min_cycle;Max_cycle;Signal;HPM_P1;HPM_P2
2023/03/19 00:00:44;;;;;;;;;;;;;;;2.10;55.47;97359.34;108891;1251;95741;-76
2023/03/19 00:03:33;;;;;;;;;;;;;;;2.07;55.51;97364.29;108882;1251;105050;-75
2023/03/19 00:06:01;;;;;;;;;;;;;;;2.03;55.62;97359.75;108900;1251;101800;-75
2023/03/19 00:08:29;;;;;;;;;;;;;;;1.98;55.77;97359.35;108891;1251;99467;-76
2023/03/19 00:10:57;;;;;;;;;;;;;;;1.92;55.84;97363.98;108677;1251;96129;-75
2023/03/19 00:13:25;;;;;;;;;;;;;;;1.87;55.89;97364.35;108871;1251;96123;-75
2023/03/19 00:15:53;;;;;;;;;;;;;;;1.86;55.93;97366.61;108865;1251;103429;-75
2023/03/19 00:18:22;;;;;;;;;;;;;;;1.87;56.09;97367.64;108892;1251;101357;-75
2023/03/19 00:20:50;;;;;;;;;;;;;;;1.85;56.08;97371.66;108879;1251;100207;-75
2023/03/19 00:23:18;;;;;;;;;;;;;;;1.82;56.25;97369.83;108833;1251;95537;-75
2023/03/19 00:25:46;;;;;;;;;;;;;;;1.77;56.16;97369.63;108890;1251;95707;-75
2023/03/19 00:28:14;;;;;;;;;;;;;;;1.73;56.26;97371.48;108922;1251;103463;-75
2023/03/19 00:30:43;;;;;;;;;;;;;;;1.69;56.34;97368.63;108892;1251;101200;-75
2023/03/19 00:33:11;;;;;;;;;;;;;;;1.69;56.35;97364.65;108878;1251;100025;-75
2023/03/19 00:35:42;;;;;;;;;;;;;;;1.70;56.50;97369.17;108847;1251;95592;-75
2023/03/19 00:38:10;;;;;;;;;;;;;;;1.69;56.50;97367.23;108887;1251;95959;-74
2023/03/19 00:40:38;;;;;;;;;;;;;;;1.68;56.54;97369.73;108956;1251;103587;-75
2023/03/19 00:43:06;;;;;;;;;;;;;;;1.63;56.61;97369.30;108656;1251;101421;-75
2023/03/19 00:45:34;;;;;;;;;;;;;;;1.56;56.65;97370.05;108920;1251;100098;-75
2023/03/19 00:48:02;;;;;;;;;;;;;;;1.54;56.83;97370.62;108853;1251;95577;-75
2023/03/19 00:50:30;;;;;;;;;;;;;;;1.54;56.85;97369.41;108888;1251;95753;-75
2023/03/19 00:52:58;;;;;;;;;;;;;;;1.52;56.94;97368.50;108891;1251;103748;-75
2023/03/19 00:55:26;;;;;;;;;;;;;;;1.50;57.01;97370.11;108886;1251;101067;-75
2023/03/19 00:57:54;;;;;;;;;;;;;;;1.46;57.07;97362.73;108856;1251;99922;-75
2023/03/19 01:00:23;;;;;;;;;;;;;;;1.44;57.16;97365.45;108886;1251;95851;-75
2023/03/19 01:02:51;;;;;;;;;;;;;;;1.42;57.12;97358.55;108899;1251;95751;-75
2023/03/19 01:05:19;;;;;;;;;;;;;;;1.40;57.18;97360.50;108901;1251;103710;-75
2023/03/19 01:07:47;;;;;;;;;;;;;;;1.35;57.22;97364.23;108844;1250;101476;-76
2023/03/19 01:10:17;;;;;;;;;;;;;;;1.32;57.29;97362.73;108899;1251;107410;-75
2023/03/19 01:12:45;;;;;;;;;;;;;;;1.30;57.40;97365.11;108879;1251;95893;-75
2023/03/19 01:15:13;;;;;;;;;;;;;;;1.26;57.48;97362.88;108877;1251;96953;-76
2023/03/19 01:17:41;;;;;;;;;;;;;;;1.22;57.50;97358.48;108929;1250;103614;-75
2023/03/19 01:20:12;;;;;;;;;;;;;;;1.18;57.76;97358.37;108889;1251;110234;-75
2023/03/19 01:22:41;;;;;;;;;;;;;;;1.12;57.71;97355.75;108857;1251;100034;-75
2023/03/19 01:25:10;;;;;;;;;;;;;;;1.08;57.75;97354.91;108659;1251;95667;-75
2023/03/19 01:27:38;;;;;;;;;;;;;;;1.06;57.76;97353.86;108913;1251;96584;-74
2023/03/19 01:30:07;;;;;;;;;;;;;;;1.02;57.75;97351.20;108891;1251;103725;-75
2023/03/19 01:32:35;;;;;;;;;;;;;;;0.98;57.77;97354.61;108879;1251;101371;-75
2023/03/19 01:35:03;;;;;;;;;;;;;;;0.95;57.92;97363.27;108862;1251;99968;-75
2023/03/19 01:37:32;;;;;;;;;;;;;;;0.93;57.89;97363.17;108903;1251;95552;-75
2023/03/19 01:40:00;;;;;;;;;;;;;;;0.90;57.98;97359.75;108700;1251;95746;-75
2023/03/19 01:42:27;;;;;;;;;;;;;;;0.85;58.07;97360.72;108685;1251;103711;-74
2023/03/19 01:44:55;;;;;;;;;;;;;;;0.80;58.11;97367.84;108882;1251;101259;-75
2023/03/19 01:47:32;;;;;;;;;;;;;;;0.73;58.22;97373.64;108871;1251;99917;-76
2023/03/19 01:50:00;;;;;;;;;;;;;;;0.66;58.44;97366.92;108878;1251;95673;-75
2023/03/19 01:52:30;;;;;;;;;;;;;;;0.59;58.44;97359.48;108838;1250;95780;-75
2023/03/19 01:55:00;;;;;;;;;;;;;;;0.53;58.63;97357.52;108720;1251;103993;-75
2023/03/19 01:57:29;;;;;;;;;;;;;;;0.51;58.78;97359.92;108906;1251;101172;-75
2023/03/19 02:00:00;;;;;;;;;;;;;;;0.45;58.95;97359.07;108755;1251;99847;-75
2023/03/19 02:02:32;;;;;;;;;;;;;;;0.39;59.00;97364.10;108883;1251;95578;-75
2023/03/19 02:05:05;;;;;;;;;;;;;;;0.38;59.12;97370.56;108911;1251;95707;-76
2023/03/19 02:07:35;;;;;;;;;;;;;;;0.35;59.20;97374.04;108904;1251;103601;-75
2023/03/19 02:10:05;;;;;;;;;;;;;;;0.30;59.17;97375.90;108913;1250;101410;-75
2023/03/19 02:12:33;;;;;;;;;;;;;;;0.28;59.34;97373.09;108745;1251;99042;-76
2023/03/19 02:15:01;;;;;;;;;;;;;;;0.30;59.34;97373.60;108895;1251;95566;-75
2023/03/19 02:17:29;;;;;;;;;;;;;;;0.31;59.38;97371.34;108932;1251;95957;-75
2023/03/19 02:20:01;;;;;;;;;;;;;;;0.33;59.31;97372.42;108911;1251;103728;-76
2023/03/19 02:22:31;;;;;;;;;;;;;;;0.34;59.32;97373.95;108916;1251;101167;-75
2023/03/19 02:25:02;;;;;;;;;;;;;;;0.35;59.32;97375.20;108904;1251;100145;-75
2023/03/19 02:27:30;;;;;;;;;;;;;;;0.37;59.35;97372.19;108879;1251;95555;-75
2023/03/19 02:29:58;;;;;;;;;;;;;;;0.38;59.39;97371.96;108918;1250;95611;-76
2023/03/19 02:32:26;;;;;;;;;;;;;;;0.39;59.45;97367.65;108967;1251;103608;-76
2023/03/19 02:34:54;;;;;;;;;;;;;;;0.40;59.40;97366.67;108918;1250;101490;-75
2023/03/19 02:37:28;;;;;;;;;;;;;;;0.39;59.39;97365.34;108944;1250;99031;-75
2023/03/19 02:40:03;;;;;;;;;;;;;;;0.37;59.45;97365.11;108815;1252;95872;-75
2023/03/19 02:42:31;;;;;;;;;;;;;;;0.32;59.44;97368.06;108903;1251;96026;-75
2023/03/19 02:44:59;;;;;;;;;;;;;;;0.29;59.51;97371.92;108847;1250;103679;-76
2023/03/19 02:47:27;;;;;;;;;;;;;;;0.27;59.70;97375.52;108844;1251;101267;-75
2023/03/19 02:49:55;;;;;;;;;;;;;;;0.23;59.68;97368.59;108880;1250;99941;-77
2023/03/19 02:52:23;;;;;;;;;;;;;;;0.21;59.61;97364.24;108859;1250;95581;-75
2023/03/19 02:54:51;;;;;;;;;;;;;;;0.19;59.67;97366.15;108948;1251;95633;-74
2023/03/19 02:57:19;;;;;;;;;;;;;;;0.20;59.67;97370.47;108904;1251;104083;-75
2023/03/19 02:59:47;;;;;;;;;;;;;;;0.20;59.73;97375.42;108911;1250;109289;-76
2023/03/19 03:02:15;;;;;;;;;;;;;;;0.21;59.80;97374.48;108915;1250;108763;-75
2023/03/19 03:04:43;;;;;;;;;;;;;;;0.21;59.80;97375.23;108963;1250;95615;-77
2023/03/19 03:07:11;;;;;;;;;;;;;;;0.19;59.89;97379.45;108946;1250;95627;-76
2023/03/19 03:09:40;;;;;;;;;;;;;;;0.16;59.93;97380.95;108937;1251;103624;-75
2023/03/19 03:12:08;;;;;;;;;;;;;;;0.08;59.88;97377.30;108954;1251;101168;-76
2023/03/19 03:14:36;;;;;;;;;;;;;;;0.02;60.04;97373.88;108919;1251;99413;-77
2023/03/19 03:17:04;;;;;;;;;;;;;;;0.01;60.03;97374.88;108887;1251;95547;-76
2023/03/19 03:19:32;;;;;;;;;;;;;;;0.01;60.04;97377.27;108893;1251;95578;-75
2023/03/19 03:22:00;;;;;;;;;;;;;;;0.00;60.19;97378.79;108893;1251;102759;-75
2023/03/19 03:24:28;;;;;;;;;;;;;;;-0.01;60.09;97379.09;108912;1251;101365;-75
2023/03/19 03:26:56;;;;;;;;;;;;;;;-0.03;60.21;97381.80;108863;1251;100106;-75
2023/03/19 03:29:24;;;;;;;;;;;;;;;-0.05;60.25;97381.83;108974;1251;95528;-75
2023/03/19 03:31:52;;;;;;;;;;;;;;;-0.07;60.28;97381.60;108889;1251;95621;-76
2023/03/19 03:34:20;;;;;;;;;;;;;;;-0.07;60.26;97386.58;108898;1250;103703;-76
2023/03/19 03:36:48;;;;;;;;;;;;;;;-0.07;60.42;97386.95;108914;1250;100018;-75
2023/03/19 03:39:17;;;;;;;;;;;;;;;-0.07;60.33;97383.02;108861;1251;99549;-75
2023/03/19 03:41:46;;;;;;;;;;;;;;;-0.08;60.45;97382.25;108678;1252;95652;-77
2023/03/19 03:44:14;;;;;;;;;;;;;;;-0.10;60.44;97382.56;108897;1251;95560;-75
2023/03/19 03:46:42;;;;;;;;;;;;;;;-0.11;60.58;97388.94;108709;1251;103419;-76
2023/03/19 03:49:10;;;;;;;;;;;;;;;-0.14;60.71;97387.92;108988;1250;101538;-75
2023/03/19 03:51:38;;;;;;;;;;;;;;;-0.14;60.60;97389.71;108887;1251;99424;-75
2023/03/19 03:54:06;;;;;;;;;;;;;;;-0.15;60.63;97390.19;108896;1251;95879;-75
2023/03/19 03:56:34;;;;;;;;;;;;;;;-0.18;60.66;97386.70;108742;1251;96041;-75
2023/03/19 03:59:02;;;;;;;;;;;;;;;-0.19;60.64;97388.44;108907;1251;103732;-77
2023/03/19 04:01:31;;;;;;;;;;;;;;;-0.21;60.68;97391.79;108895;1251;101380;-76
2023/03/19 04:03:59;;;;;;;;;;;;;;;-0.22;60.80;97398.04;108902;1251;99175;-76
2023/03/19 04:06:27;;;;;;;;;;;;;;;-0.23;60.68;97403.44;108875;1251;95577;-76
2023/03/19 04:08:55;;;;;;;;;;;;;;;-0.25;60.75;97405.64;108921;1251;95609;-77
2023/03/19 04:11:23;;;;;;;;;;;;;;;-0.26;60.81;97403.94;108947;1251;103497;-77
2023/03/19 04:13:51;;;;;;;;;;;;;;;-0.28;60.85;97401.65;108871;1250;100723;-76
2023/03/19 04:16:20;;;;;;;;;;;;;;;-0.30;60.84;97411.20;108896;1251;99989;-76
2023/03/19 04:18:48;;;;;;;;;;;;;;;-0.35;60.97;97409.36;108890;1251;95588;-76
2023/03/19 04:21:16;;;;;;;;;;;;;;;-0.38;61.08;97413.52;108911;1251;95595;-77
2023/03/19 04:23:44;;;;;;;;;;;;;;;-0.39;61.15;97413.27;108909;1251;103410;-77
2023/03/19 04:26:12;;;;;;;;;;;;;;;-0.40;61.14;97416.51;108964;1250;100380;-75
2023/03/19 04:28:41;;;;;;;;;;;;;;;-0.41;61.23;97421.20;108705;1251;99990;-77
2023/03/19 04:31:09;;;;;;;;;;;;;;;-0.44;61.31;97418.38;108863;1251;95580;-75
2023/03/19 04:33:37;;;;;;;;;;;;;;;-0.47;61.32;97422.14;108941;1251;95636;-76
2023/03/19 04:36:05;;;;;;;;;;;;;;;-0.48;61.35;97425.94;108910;1250;103832;-75
2023/03/19 04:38:33;;;;;;;;;;;;;;;-0.48;61.42;97425.31;108960;1251;101474;-77
2023/03/19 04:41:03;;;;;;;;;;;;;;;-0.50;61.53;97419.46;108881;1251;99874;-75
2023/03/19 04:43:31;;;;;;;;;;;;;;;-0.53;61.51;97417.40;108903;1251;95572;-75
2023/03/19 04:45:59;;;;;;;;;;;;;;;-0.54;61.59;97412.54;108992;1251;95559;-76
2023/03/19 04:48:27;;;;;;;;;;;;;;;-0.56;61.56;97407.77;108984;1251;103668;-76
2023/03/19 04:50:56;;;;;;;;;;;;;;;-0.57;61.66;97404.16;108958;1251;101527;-77
2023/03/19 04:53:24;;;;;;;;;;;;;;;-0.57;61.67;97405.77;108882;1251;99893;-75
2023/03/19 04:55:52;;;;;;;;;;;;;;;-0.58;61.59;97407.26;108889;1252;97029;-77
2023/03/19 04:58:20;;;;;;;;;;;;;;;-0.58;61.73;97408.88;108920;1251;95787;-75
2023/03/19 05:00:48;;;;;;;;;;;;;;;-0.56;61.78;97411.90;108946;1251;103973;-76
2023/03/19 05:03:17;;;;;;;;;;;;;;;-0.54;61.89;97412.59;108959;1250;101380;-75
2023/03/19 05:05:45;;;;;;;;;;;;;;;-0.53;61.85;97413.40;108938;1251;100107;-74
2023/03/19 05:08:13;;;;;;;;;;;;;;;-0.52;61.81;97414.35;108887;1251;96021;-77
2023/03/19 05:10:41;;;;;;;;;;;;;;;-0.53;61.90;97410.23;108949;1251;96522;-77
2023/03/19 05:13:09;;;;;;;;;;;;;;;-0.56;61.97;97408.01;108744;1251;103073;-76
2023/03/19 05:15:37;;;;;;;;;;;;;;;-0.59;62.07;97408.63;108983;1251;101209;-76
2023/03/19 05:18:05;;;;;;;;;;;;;;;-0.62;62.11;97403.77;108930;1251;100195;-78
2023/03/19 05:20:34;;;;;;;;;;;;;;;-0.63;62.12;97403.73;108894;1251;95602;-75
2023/03/19 05:23:02;;;;;;;;;;;;;;;-0.63;62.17;97400.50;108950;1254;95821;-76
2023/03/19 05:25:30;;;;;;;;;;;;;;;-0.61;62.24;97402.29;108899;1253;103694;-75
2023/03/19 05:27:58;;;;;;;;;;;;;;;-0.60;62.40;97400.79;108722;1255;101354;-78
2023/03/19 05:30:26;;;;;;;;;;;;;;;-0.59;62.46;97402.07;108878;1251;99822;-76
2023/03/19 05:32:56;;;;;;;;;;;;;;;-0.57;62.53;97403.10;108910;1251;95575;-76
2023/03/19 05:35:24;;;;;;;;;;;;;;;-0.52;62.51;97405.36;108935;1251;96488;-75
2023/03/19 05:37:52;;;;;;;;;;;;;;;-0.49;62.51;97399.58;108976;1253;103263;-76
2023/03/19 05:40:21;;;;;;;;;;;;;;;-0.47;62.51;97400.56;108931;1250;101433;-75
2023/03/19 05:42:49;;;;;;;;;;;;;;;-0.44;62.53;97401.85;108932;1251;99909;-75
2023/03/19 05:45:17;;;;;;;;;;;;;;;-0.41;62.66;97401.13;108861;1251;95579;-76
2023/03/19 05:47:47;;;;;;;;;;;;;;;-0.40;62.69;97401.18;108920;1251;96523;-75
2023/03/19 05:50:16;;;;;;;;;;;;;;;-0.39;62.78;97402.66;108956;1250;103045;-77
2023/03/19 05:52:44;;;;;;;;;;;;;;;-0.37;62.71;97401.45;108943;1251;101579;-76
2023/03/19 05:55:12;;;;;;;;;;;;;;;-0.33;62.72;97397.05;108894;1251;99913;-76
2023/03/19 05:57:41;;;;;;;;;;;;;;;-0.29;62.75;97400.02;108911;1251;95667;-75
2023/03/19 06:00:10;;;;;;;;;;;;;;;-0.26;62.80;97400.95;108742;1251;95692;-75
2023/03/19 06:02:38;;;;;;;;;;;;;;;-0.22;62.78;97394.05;108946;1251;103477;-75
2023/03/19 06:05:07;;;;;;;;;;;;;;;-0.16;62.77;97389.94;108953;1251;100987;-75
2023/03/19 06:07:35;;;;;;;;;;;;;;;-0.10;62.80;97389.71;108938;1251;100561;-76
2023/03/19 06:10:03;;;;;;;;;;;;;;;-0.05;62.80;97390.29;108975;1251;95716;-75
2023/03/19 06:12:31;;;;;;;;;;;;;;;-0.00;62.66;97388.40;108925;1251;96112;-76
2023/03/19 06:14:59;;;;;;;;;;;;;;;0.05;62.65;97381.02;108911;1251;103701;-76
2023/03/19 06:17:27;;;;;;;;;;;;;;;0.10;62.62;97376.98;108944;1251;101215;-76
2023/03/19 06:19:55;;;;;;;;;;;;;;;0.17;62.69;97381.45;108882;1251;99459;-76
2023/03/19 06:22:23;;;;;;;;;;;;;;;0.24;62.75;97383.92;108909;1251;95536;-76
2023/03/19 06:24:51;;;;;;;;;;;;;;;0.32;62.81;97380.52;108955;1251;95627;-75
2023/03/19 06:27:19;;;;;;;;;;;;;;;0.41;62.58;97379.08;109000;1251;103365;-75
2023/03/19 06:29:47;;;;;;;;;;;;;;;0.52;62.48;97380.86;108977;1250;101415;-77
2023/03/19 06:32:15;;;;;;;;;;;;;;;0.63;62.34;97380.82;108708;1253;98686;-75
2023/03/19 06:34:43;;;;;;;;;;;;;;;0.74;62.16;97385.80;108897;1251;95773;-76
2023/03/19 06:37:11;;;;;;;;;;;;;;;0.85;62.14;97388.94;108693;1251;95872;-75
2023/03/19 06:39:39;;;;;;;;;;;;;;;0.96;62.01;97389.77;108980;1251;103599;-75
2023/03/19 06:42:07;;;;;;;;;;;;;;;1.11;62.01;97389.91;108973;1251;100637;-76
2023/03/19 06:44:35;;;;;;;;;;;;;;;1.30;61.97;97390.51;108763;1251;98794;-75
2023/03/19 06:47:03;;;;;;;;;;;;;;;1.47;61.91;97389.64;108648;1256;95826;-74
2023/03/19 06:49:31;;;;;;;;;;;;;;;1.64;61.67;97389.80;108951;1251;95856;-74
2023/03/19 06:52:00;;;;;;;;;;;;;;;1.83;61.57;97394.21;108942;1251;103497;-75
2023/03/19 06:54:28;;;;;;;;;;;;;;;2.04;61.37;97395.43;108916;1251;101623;-75
2023/03/19 06:56:56;;;;;;;;;;;;;;;2.24;61.14;97394.27;108921;1251;99959;-75
2023/03/19 06:59:24;;;;;;;;;;;;;;;2.44;61.09;97393.15;108953;1250;95551;-76
2023/03/19 07:01:52;;;;;;;;;;;;;;;2.66;60.60;97399.35;108939;1251;95732;-75
2023/03/19 07:04:20;;;;;;;;;;;;;;;2.90;60.25;97395.18;108952;1251;103785;-75
2023/03/19 07:06:48;;;;;;;;;;;;;;;3.16;59.93;97396.83;108923;1251;101603;-75
2023/03/19 07:09:16;;;;;;;;;;;;;;;3.43;59.60;97395.66;108907;1251;99848;-75
2023/03/19 07:11:44;;;;;;;;;;;;;;;3.69;59.36;97388.50;108719;1251;95695;-75
2023/03/19 07:14:12;;;;;;;;;;;;;;;3.94;59.03;97384.70;108726;1251;95654;-75
2023/03/19 07:16:40;;;;;;;;;;;;;;;4.17;58.81;97378.92;108959;1251;103366;-75
2023/03/19 07:19:08;;;;;;;;;;;;;;;4.42;58.46;97376.83;108943;1251;101006;-75
2023/03/19 07:21:36;;;;;;;;;;;;;;;4.66;58.20;97379.15;108861;1250;98814;-75
2023/03/19 07:24:04;;;;;;;;;;;;;;;4.90;58.05;97380.73;108917;1251;95533;-75
2023/03/19 07:26:32;;;;;;;;;;;;;;;5.13;57.64;97378.61;108966;1254;95863;-75
2023/03/19 07:29:00;;;;;;;;;;;;;;;5.36;57.30;97375.12;108906;1251;103871;-75
2023/03/19 07:31:30;;;;;;;;;;;;;;;5.62;57.35;97374.40;108961;1251;100686;-75
2023/03/19 07:33:58;;;;;;;;;;;;;;;5.90;56.95;97373.06;108924;1251;100157;-76
2023/03/19 07:36:26;;;;;;;;;;;;;;;6.19;56.53;97369.39;108925;1250;95593;-75
2023/03/19 07:38:54;;;;;;;;;;;;;;;6.50;56.06;97366.34;108955;1250;95598;-75
2023/03/19 07:41:23;;;;;;;;;;;;;;;6.85;55.33;97365.77;108892;1250;102058;-75
2023/03/19 07:43:51;;;;;;;;;;;;;;;7.25;54.91;97365.21;108937;1251;101475;-75
2023/03/19 07:46:19;;;;;;;;;;;;;;;7.68;54.71;97359.23;108917;1251;100160;-75
2023/03/19 07:48:47;;;;;;;;;;;;;;;8.11;54.16;97350.63;108840;1251;95571;-75
2023/03/19 07:51:15;;;;;;;;;;;;;;;8.55;53.55;97349.02;108916;1251;95599;-75
2023/03/19 07:53:43;;;;;;;;;;;;;;;8.97;52.97;97350.86;108817;1252;103678;-75
2023/03/19 07:56:12;;;;;;;;;;;;;;;9.37;52.55;97352.86;108697;1251;101169;-75
2023/03/19 07:58:40;;;;;;;;;;;;;;;9.77;51.73;97347.20;108839;1251;99846;-75
2023/03/19 08:01:08;;;;;;;;;;;;;;;10.12;50.87;97342.17;108731;1251;199830;-75
2023/03/19 08:03:36;;;;;;;;;;;;;;;10.41;49.99;97339.77;108883;1251;95585;-75
2023/03/19 08:06:04;;;;;;;;;;;;;;;10.69;49.48;97344.29;108902;1250;103635;-75
2023/03/19 08:08:33;;;;;;;;;;;;;;;11.00;48.79;97344.35;108884;1251;101071;-75
2023/03/19 08:11:02;;;;;;;;;;;;;;;11.34;48.29;97333.60;108869;1251;100112;-75
2023/03/19 08:13:30;;;;;;;;;;;;;;;11.62;47.69;97329.99;108793;1251;95556;-75
2023/03/19 08:15:58;;;;;;;;;;;;;;;11.93;47.27;97328.27;108940;1251;95722;-75
2023/03/19 08:18:26;;;;;;;;;;;;;;;12.26;46.78;97328.41;108903;1255;103202;-75
2023/03/19 08:20:54;;;;;;;;;;;;;;;12.57;46.21;97327.08;108904;1251;101422;-75
2023/03/19 08:23:22;;;;;;;;;;;;;;;12.86;45.61;97324.02;108863;1251;98856;-75
2023/03/19 08:25:52;;;;;;;;;;;;;;;13.18;45.01;97323.54;108856;1251;95542;-75
2023/03/19 08:28:20;;;;;;;;;;;;;;;13.54;44.73;97318.10;108862;1251;95634;-75
2023/03/19 08:30:48;;;;;;;;;;;;;;;13.81;44.02;97316.83;108939;1251;103176;-75
2023/03/19 08:33:16;;;;;;;;;;;;;;;14.07;43.43;97316.67;108886;1251;101415;-75
2023/03/19 08:35:44;;;;;;;;;;;;;;;14.26;42.75;97312.84;108847;1251;98752;-75
2023/03/19 08:38:12;;;;;;;;;;;;;;;14.49;42.25;97309.05;108879;1254;95559;-75
2023/03/19 08:40:40;;;;;;;;;;;;;;;14.71;41.82;97309.29;108881;1251;95601;-74
2023/03/19 08:43:08;;;;;;;;;;;;;;;14.92;41.57;97311.19;108883;1250;103438;-75
2023/03/19 08:45:36;;;;;;;;;;;;;;;15.05;41.04;97315.52;108900;1250;100833;-75
2023/03/19 08:48:04;;;;;;;;;;;;;;;15.16;40.64;97314.54;108906;1251;100064;-75
2023/03/19 08:50:32;;;;;;;;;;;;;;;15.20;40.04;97310.49;108875;1254;95580;-75
2023/03/19 08:53:02;;;;;;;;;;;;;;;15.30;39.48;97310.67;108862;1251;95589;-75
2023/03/19 08:55:30;;;;;;;;;;;;;;;15.43;39.22;97310.48;108908;1250;103363;-75
2023/03/19 08:57:58;;;;;;;;;;;;;;;15.63;38.89;97307.06;108941;1251;100978;-75
2023/03/19 09:00:26;;;;;;;;;;;;;;;15.76;38.54;97302.48;108847;1251;100111;-75
2023/03/19 09:02:54;;;;;;;;;;;;;;;15.85;38.05;97302.27;108932;1251;95586;-75
2023/03/19 09:05:23;;;;;;;;;;;;;;;15.88;37.60;97302.25;108894;1251;95583;-74
2023/03/19 09:07:51;;;;;;;;;;;;;;;15.95;37.80;97297.91;108901;1251;103634;-74
2023/03/19 09:10:19;;;;;;;;;;;;;;;16.15;37.30;97302.48;108666;1251;100784;-75
2023/03/19 09:12:47;;;;;;;;;;;;;;;16.31;36.93;97303.13;108801;1252;99840;-74
2023/03/19 09:15:15;;;;;;;;;;;;;;;16.45;36.81;97297.95;108796;1251;95509;-74
2023/03/19 09:17:42;;;;;;;;;;;;;;;16.64;35.96;97290.66;108814;1252;95676;-74
2023/03/19 09:20:11;;;;;;;;;;;;;;;16.81;35.47;97287.67;108938;1250;103393;-75
2023/03/19 09:22:39;;;;;;;;;;;;;;;17.03;34.88;97282.48;108946;1251;101515;-74
2023/03/19 09:25:07;;;;;;;;;;;;;;;17.16;34.12;97280.81;108886;1251;100071;-75
2023/03/19 09:27:35;;;;;;;;;;;;;;;17.37;34.19;97274.82;108684;1251;95923;-75
2023/03/19 09:30:08;;;;;;;;;;;;;;;17.65;33.34;97273.58;108928;1251;95658;-74
2023/03/19 09:32:36;;;;;;;;;;;;;;;17.88;32.74;97269.24;108913;1251;103482;-74
2023/03/19 09:35:05;;;;;;;;;;;;;;;18.10;32.89;97266.19;108922;1251;101370;-74
2023/03/19 09:37:33;;;;;;;;;;;;;;;18.32;32.49;97260.05;108879;1251;99968;-74
2023/03/19 09:40:00;;;;;;;;;;;;;;;18.44;32.16;97263.83;108888;1251;95527;-75
2023/03/19 09:42:38;;;;;;;;;;;;;;;18.58;31.38;97264.48;108886;1251;95608;-74
2023/03/19 09:45:12;;;;;;;;;;;;;;;18.71;31.26;97262.42;108726;1250;104702;-74
2023/03/19 09:47:42;;;;;;;;;;;;;;;18.87;31.05;97257.23;108920;1251;100150;-74
2023/03/19 09:50:15;;;;;;;;;;;;;;;18.99;30.48;97256.84;108894;1251;99905;-74
2023/03/19 09:52:47;;;;;;;;;;;;;;;19.13;30.38;97256.50;108752;1251;95592;-75
2023/03/19 09:55:18;;;;;;;;;;;;;;;19.38;30.37;97253.82;108856;1254;95566;-75
2023/03/19 09:57:48;;;;;;;;;;;;;;;19.66;30.21;97243.98;108846;1253;102679;-75
2023/03/19 10:00:21;;;;;;;;;;;;;;;19.93;29.92;97238.55;108904;1251;101402;-75
2023/03/19 10:02:53;;;;;;;;;;;;;;;20.10;30.12;97241.70;108426;1250;98867;-74
2023/03/19 10:05:21;;;;;;;;;;;;;;;20.18;29.72;97247.61;108648;1252;95624;-74
2023/03/19 10:07:49;;;;;;;;;;;;;;;20.26;28.92;97244.86;108897;1251;95804;-75
2023/03/19 10:10:17;;;;;;;;;;;;;;;20.37;29.56;97241.19;108910;1251;103830;-75
2023/03/19 10:12:53;;;;;;;;;;;;;;;20.36;29.12;97238.06;108927;1251;101105;-75
2023/03/19 10:15:32;;;;;;;;;;;;;;;20.42;28.82;97238.33;108686;1253;98839;-75
2023/03/19 10:18:04;;;;;;;;;;;;;;;20.47;28.53;97238.27;108864;1251;95492;-74
2023/03/19 10:20:41;;;;;;;;;;;;;;;20.50;28.55;97237.98;108875;1251;95614;-74
2023/03/19 10:23:27;;;;;;;;;;;;;;;20.65;28.07;97235.06;108946;1251;103585;-75
2023/03/19 10:25:56;;;;;;;;;;;;;;;20.67;28.28;97231.83;108737;1251;101368;-75
2023/03/19 10:28:27;;;;;;;;;;;;;;;20.67;28.16;97226.45;108724;1251;98589;-75
2023/03/19 10:30:58;;;;;;;;;;;;;;;20.63;28.06;97221.05;108912;1251;95507;-74
2023/03/19 10:33:32;;;;;;;;;;;;;;;20.64;28.15;97217.26;108900;1251;95919;-74
2023/03/19 10:36:06;;;;;;;;;;;;;;;20.78;28.17;97210.02;108718;1256;102789;-75
2023/03/19 10:38:39;;;;;;;;;;;;;;;20.87;28.26;97209.79;108886;1251;101599;-74
2023/03/19 10:41:16;;;;;;;;;;;;;;;20.81;27.90;97210.27;108875;1251;100132;-74
2023/03/19 10:43:47;;;;;;;;;;;;;;;20.90;27.62;97207.05;108855;1251;95510;-74
2023/03/19 10:46:16;;;;;;;;;;;;;;;20.93;27.29;97205.38;108942;1251;95645;-74
2023/03/19 10:48:45;;;;;;;;;;;;;;;20.86;27.00;97200.21;108901;1251;103437;-73
2023/03/19 10:51:15;;;;;;;;;;;;;;;20.84;27.04;97196.98;108886;1251;101047;-74
2023/03/19 10:53:43;;;;;;;;;;;;;;;20.74;26.84;97192.70;108687;1251;99906;-74
2023/03/19 10:56:14;;;;;;;;;;;;;;;20.79;26.66;97192.07;108852;1251;95777;-74
2023/03/19 10:58:55;;;;;;;;;;;;;;;20.99;26.34;97193.11;108897;1251;95594;-74
2023/03/19 11:01:26;;;;;;;;;;;;;;;21.10;26.41;97189.92;108875;1251;103271;-75
2023/03/19 11:03:58;;;;;;;;;;;;;;;21.22;26.51;97189.59;108705;1251;101363;-74
2023/03/19 11:06:26;;;;;;;;;;;;;;;21.31;26.44;97187.07;108837;1251;99767;-74
2023/03/19 11:08:59;;;;;;;;;;;;;;;21.34;25.84;97183.04;108824;1251;95986;-74
2023/03/19 11:11:33;;;;;;;;;;;;;;;21.36;25.92;97178.86;108873;1251;95579;-74
2023/03/19 11:14:22;;;;;;;;;;;;;;;21.41;25.83;97174.59;108720;1251;103153;-74
2023/03/19 11:16:57;;;;;;;;;;;;;;;21.45;25.54;97174.06;108849;1251;101507;-75
2023/03/19 11:19:26;;;;;;;;;;;;;;;21.39;25.24;97171.75;108650;1251;98915;-74
2023/03/19 11:22:02;;;;;;;;;;;;;;;21.38;25.78;97175.11;108846;1251;95610;-74
2023/03/19 11:24:34;;;;;;;;;;;;;;;21.33;25.66;97178.60;108659;1251;95941;-75
2023/03/19 11:27:02;;;;;;;;;;;;;;;21.08;25.35;97174.24;108906;1251;103510;-74
2023/03/19 11:29:31;;;;;;;;;;;;;;;20.85;25.26;97172.78;108851;1251;101414;-74
2023/03/19 11:32:17;;;;;;;;;;;;;;;20.73;24.98;97169.92;108579;1253;100096;-75
2023/03/19 11:34:52;;;;;;;;;;;;;;;20.79;25.17;97163.48;108844;1251;95492;-74
2023/03/19 11:37:27;;;;;;;;;;;;;;;20.88;25.07;97154.02;108841;1251;95796;-75
2023/03/19 11:40:10;;;;;;;;;;;;;;;20.92;25.40;97153.59;108697;1251;102567;-74
2023/03/19 11:42:54;;;;;;;;;;;;;;;20.96;25.24;97150.82;108872;1253;101282;-75
2023/03/19 11:45:22;;;;;;;;;;;;;;;21.09;25.03;97139.98;108801;1251;101083;-74
2023/03/19 11:47:56;;;;;;;;;;;;;;;21.25;25.29;97139.50;108670;1251;95630;-75
2023/03/19 11:50:40;;;;;;;;;;;;;;;21.33;25.00;97135.23;108938;1251;95642;-74
2023/03/19 11:53:18;;;;;;;;;;;;;;;21.26;24.89;97132.31;108915;1251;103516;-75
2023/03/19 11:55:56;;;;;;;;;;;;;;;21.25;25.12;97133.52;108932;1251;101288;-75
2023/03/19 11:58:24;;;;;;;;;;;;;;;21.40;25.06;97128.68;108632;1251;98879;-76
2023/03/19 12:00:54;;;;;;;;;;;;;;;21.54;24.66;97125.05;108670;1253;95909;-74
2023/03/19 12:03:24;;;;;;;;;;;;;;;21.60;24.25;97122.36;108897;1254;96066;-74
2023/03/19 12:05:57;;;;;;;;;;;;;;;21.71;24.55;97119.45;108941;1255;103493;-74
2023/03/19 12:08:48;;;;;;;;;;;;;;;22.00;24.15;97115.11;108882;1251;101822;-75
2023/03/19 12:11:24;;;;;;;;;;;;;;;22.25;24.18;97110.16;108195;1259;99667;-74
2023/03/19 12:13:52;;;;;;;;;;;;;;;22.58;23.95;97109.42;108245;1259;95967;-75
2023/03/19 12:16:54;;;;;;;;;;;;;;;22.70;23.76;97107.11;108284;1259;95717;-74
2023/03/19 12:19:34;;;;;;;;;;;;;;;22.82;23.82;97107.07;107711;1265;104634;-74
2023/03/19 12:22:21;;;;;;;;;;;;;;;22.91;23.82;97103.30;107878;1268;101739;-74
2023/03/19 12:24:55;;;;;;;;;;;;;;;23.03;23.43;97103.80;107902;1265;99462;-75
2023/03/19 12:27:47;;;;;;;;;;;;;;;23.18;23.74;97101.63;107927;1265;95646;-74
2023/03/19 12:30:25;;;;;;;;;;;;;;;23.29;23.44;97092.65;107795;1266;96510;-74
2023/03/19 12:32:56;;;;;;;;;;;;;;;23.34;23.32;97086.50;107934;1265;112343;-74
2023/03/19 12:35:29;;;;;;;;;;;;;;;23.47;23.03;97081.50;107922;1265;101103;-74
2023/03/19 12:38:16;;;;;;;;;;;;;;;23.56;23.04;97079.55;107865;1266;100065;-75
2023/03/19 12:40:44;;;;;;;;;;;;;;;23.65;22.80;97073.42;107870;1265;95687;-74
2023/03/19 12:43:22;;;;;;;;;;;;;;;23.70;22.67;97065.34;107928;1266;95849;-74
2023/03/19 12:45:57;;;;;;;;;;;;;;;23.76;22.89;97065.53;107917;1265;103657;-74
2023/03/19 12:48:28;;;;;;;;;;;;;;;23.86;22.89;97058.94;108055;1260;101558;-74